createdAt,value
2022-12-27T00:00:00.293Z,8.60
2022-12-27T00:02:29.355Z,8.60
2022-12-27T00:04:58.096Z,8.60
2022-12-27T00:07:26.758Z,8.50
2022-12-27T00:09:56.727Z,8.50
2022-12-27T00:12:25.342Z,8.50
2022-12-27T00:14:53.952Z,8.50
2022-12-27T00:17:22.511Z,8.50
2022-12-27T00:19:51.089Z,8.50
2022-12-27T00:22:19.736Z,8.50
2022-12-27T00:24:48.704Z,8.40
2022-12-27T00:27:18.757Z,8.40
2022-12-27T00:29:48.145Z,8.40
2022-12-27T00:32:16.772Z,8.40
2022-12-27T00:34:45.566Z,8.40
2022-12-27T00:37:14.173Z,8.40
2022-12-27T00:39:42.757Z,8.40
2022-12-27T00:42:11.418Z,8.40
2022-12-27T00:44:43.330Z,8.30
2022-12-27T00:47:12.000Z,8.30
2022-12-27T00:49:40.627Z,8.30
2022-12-27T00:52:09.250Z,8.30
2022-12-27T00:54:38.073Z,8.30
2022-12-27T00:57:06.873Z,8.20
2022-12-27T00:59:35.602Z,8.20
2022-12-27T01:02:05.641Z,8.20
2022-12-27T01:04:34.374Z,8.20
2022-12-27T01:07:03.020Z,8.20
2022-12-27T01:09:31.627Z,8.20
2022-12-27T01:12:00.297Z,8.20
2022-12-27T01:14:28.922Z,8.20
2022-12-27T01:16:57.571Z,8.20
2022-12-27T01:19:27.605Z,8.30
2022-12-27T01:21:56.236Z,8.30
2022-12-27T01:24:26.128Z,8.10
2022-12-27T01:26:54.824Z,8.00
2022-12-27T01:29:23.489Z,7.90
2022-12-27T01:31:52.287Z,7.90
2022-12-27T01:34:21.055Z,7.90
2022-12-27T01:36:51.687Z,7.80
2022-12-27T01:39:20.317Z,7.80
2022-12-27T01:42:06.549Z,7.80
2022-12-27T01:44:53.394Z,7.70
2022-12-27T01:47:46.814Z,7.70
2022-12-27T01:50:21.026Z,7.60
2022-12-27T01:52:56.705Z,7.60
2022-12-27T01:55:31.668Z,7.50
2022-12-27T01:58:04.954Z,7.50
2022-12-27T02:00:33.869Z,7.50
2022-12-27T02:03:05.336Z,7.40
2022-12-27T02:05:34.399Z,7.40
2022-12-27T02:08:22.832Z,7.30
2022-12-27T02:10:52.417Z,7.30
2022-12-27T02:13:21.821Z,7.30
2022-12-27T02:15:50.794Z,7.30
2022-12-27T02:18:19.429Z,7.30
2022-12-27T02:21:15.191Z,7.30
2022-12-27T02:24:05.267Z,7.30
2022-12-27T02:26:42.032Z,7.30
2022-12-27T02:29:32.879Z,7.30
2022-12-27T02:32:08.057Z,7.30
2022-12-27T02:34:43.959Z,7.20
2022-12-27T02:37:14.545Z,7.10
2022-12-27T02:39:48.704Z,7.00
2022-12-27T02:42:37.233Z,7.00
2022-12-27T02:45:35.130Z,6.90
2022-12-27T02:48:22.823Z,6.80
2022-12-27T02:51:21.535Z,6.80
2022-12-27T02:53:57.754Z,6.70
2022-12-27T02:56:56.675Z,6.70
2022-12-27T02:59:38.294Z,6.70
2022-12-27T03:02:34.694Z,6.60
2022-12-27T03:05:16.339Z,6.60
2022-12-27T03:07:49.945Z,6.60
2022-12-27T03:10:45.066Z,6.60
2022-12-27T03:13:42.410Z,6.60
2022-12-27T03:16:17.899Z,6.60
2022-12-27T03:18:59.021Z,6.60
2022-12-27T03:21:50.136Z,6.60
2022-12-27T03:24:37.951Z,6.50
2022-12-27T03:27:10.900Z,6.50
2022-12-27T03:29:57.126Z,6.50
2022-12-27T03:32:43.625Z,6.50
2022-12-27T03:35:18.583Z,6.50
2022-12-27T03:38:05.204Z,6.40
2022-12-27T03:41:12.274Z,6.40
2022-12-27T03:43:41.696Z,6.30
2022-12-27T03:46:35.889Z,6.20
2022-12-27T03:49:12.922Z,6.20
2022-12-27T03:51:47.896Z,6.10
2022-12-27T03:54:26.407Z,6.00
2022-12-27T03:56:57.358Z,5.90
2022-12-27T03:59:27.479Z,5.90
2022-12-27T04:01:56.934Z,5.80
2022-12-27T04:04:25.673Z,5.80
2022-12-27T04:06:55.767Z,5.80
2022-12-27T04:09:41.886Z,5.70
2022-12-27T04:12:28.257Z,5.70
2022-12-27T04:15:14.128Z,5.70
2022-12-27T04:18:00.268Z,5.60
2022-12-27T04:20:46.428Z,5.60
2022-12-27T04:23:33.701Z,5.50
2022-12-27T04:26:21.177Z,5.30
2022-12-27T04:29:07.112Z,5.30
2022-12-27T04:31:52.998Z,5.20
2022-12-27T04:34:39.287Z,5.20
2022-12-27T04:37:09.066Z,5.20
2022-12-27T04:39:39.110Z,5.20
2022-12-27T04:42:25.470Z,5.20
2022-12-27T04:45:15.080Z,5.20
2022-12-27T04:48:01.742Z,5.20
2022-12-27T04:50:50.863Z,5.30
2022-12-27T04:53:38.673Z,5.30
2022-12-27T04:56:09.026Z,5.30
2022-12-27T04:58:57.627Z,5.30
2022-12-27T05:01:44.397Z,5.30
2022-12-27T05:04:13.234Z,5.30
2022-12-27T05:06:41.869Z,5.30
2022-12-27T05:09:28.207Z,5.30
2022-12-27T05:12:14.604Z,5.20
2022-12-27T05:14:43.372Z,5.30
2022-12-27T05:17:11.991Z,5.30
2022-12-27T05:19:40.616Z,5.30
2022-12-27T05:22:32.060Z,5.20
2022-12-27T05:25:17.750Z,5.30
2022-12-27T05:27:50.143Z,5.20
2022-12-27T05:30:18.953Z,5.10
2022-12-27T05:32:47.543Z,5.00
2022-12-27T05:35:16.251Z,5.00
2022-12-27T05:37:48.772Z,5.00
2022-12-27T05:40:20.106Z,5.00
2022-12-27T05:42:50.175Z,4.90
2022-12-27T05:45:19.523Z,4.90
2022-12-27T05:47:48.270Z,4.90
2022-12-27T05:50:17.045Z,4.90
2022-12-27T05:52:51.890Z,4.90
2022-12-27T05:55:21.021Z,4.80
2022-12-27T05:57:50.990Z,4.80
2022-12-27T06:00:19.919Z,4.80
2022-12-27T06:02:48.601Z,4.70
2022-12-27T06:05:17.363Z,4.60
2022-12-27T06:07:46.009Z,4.50
2022-12-27T06:10:14.776Z,4.50
2022-12-27T06:12:43.768Z,4.50
2022-12-27T06:15:13.918Z,4.40
2022-12-27T06:17:44.034Z,4.40
2022-12-27T06:20:12.722Z,4.40
2022-12-27T06:22:41.398Z,4.40
2022-12-27T06:25:14.136Z,4.40
2022-12-27T06:27:43.576Z,4.40
2022-12-27T06:30:15.502Z,4.30
2022-12-27T06:32:44.158Z,4.30
2022-12-27T06:35:12.790Z,4.20
2022-12-27T06:37:41.676Z,4.20
2022-12-27T06:40:11.538Z,4.20
2022-12-27T06:42:40.726Z,4.10
2022-12-27T06:45:10.613Z,4.10
2022-12-27T06:47:42.194Z,4.10
2022-12-27T06:50:11.668Z,4.10
2022-12-27T06:52:40.246Z,4.10
2022-12-27T06:55:09.387Z,4.10
2022-12-27T06:57:38.003Z,4.10
2022-12-27T07:00:08.758Z,4.10
2022-12-27T07:02:41.197Z,4.10
2022-12-27T07:05:10.525Z,4.10
2022-12-27T07:07:39.178Z,4.10
2022-12-27T07:10:08.822Z,4.10
2022-12-27T07:12:37.557Z,4.00
2022-12-27T07:15:07.353Z,4.00
2022-12-27T07:17:37.684Z,4.00
2022-12-27T07:20:09.094Z,4.00
2022-12-27T07:22:37.758Z,4.10
2022-12-27T07:25:07.484Z,4.10
2022-12-27T07:27:36.219Z,4.10
2022-12-27T07:30:06.043Z,4.20
2022-12-27T07:32:34.764Z,4.30
2022-12-27T07:35:03.437Z,4.30
2022-12-27T07:37:33.481Z,4.40
2022-12-27T07:40:02.145Z,4.50
2022-12-27T07:42:31.187Z,4.50
2022-12-27T07:45:00.340Z,4.50
2022-12-27T07:47:32.449Z,4.50
2022-12-27T07:50:01.043Z,4.40
2022-12-27T07:52:30.072Z,4.40
2022-12-27T07:55:00.068Z,4.30
2022-12-27T07:57:29.740Z,4.40
2022-12-27T07:59:58.367Z,4.40
2022-12-27T08:02:27.146Z,4.50
2022-12-27T08:04:56.135Z,4.50
2022-12-27T08:07:26.817Z,4.50
2022-12-27T08:09:55.495Z,4.50
2022-12-27T08:12:25.759Z,4.50
2022-12-27T08:14:54.392Z,4.50
2022-12-27T08:17:27.223Z,4.60
2022-12-27T08:19:56.657Z,4.60
2022-12-27T08:22:25.509Z,4.60
2022-12-27T08:24:56.044Z,4.70
2022-12-27T08:27:26.529Z,4.70
2022-12-27T08:29:55.161Z,4.70
2022-12-27T08:32:23.795Z,4.80
2022-12-27T08:34:52.415Z,4.80
2022-12-27T08:37:21.035Z,4.80
2022-12-27T08:39:49.651Z,4.90
2022-12-27T08:42:18.279Z,4.90
2022-12-27T08:44:48.287Z,5.00
2022-12-27T08:47:16.956Z,5.20
2022-12-27T08:49:45.572Z,5.30
2022-12-27T08:52:14.202Z,5.40
2022-12-27T08:54:42.897Z,5.50
2022-12-27T08:57:11.524Z,5.50
2022-12-27T08:59:40.158Z,5.40
2022-12-27T09:02:11.720Z,5.30
2022-12-27T09:04:40.413Z,5.30
2022-12-27T09:07:09.049Z,5.30
2022-12-27T09:09:37.705Z,5.40
2022-12-27T09:12:09.208Z,5.50
2022-12-27T09:14:38.182Z,5.60
2022-12-27T09:17:09.082Z,5.60
2022-12-27T09:19:39.097Z,5.50
2022-12-27T09:22:07.808Z,5.50
2022-12-27T09:24:36.589Z,5.50
2022-12-27T09:27:05.377Z,5.60
2022-12-27T09:29:34.132Z,5.70
2022-12-27T09:32:02.873Z,5.80
2022-12-27T09:34:31.515Z,5.80
2022-12-27T09:37:01.562Z,5.80
2022-12-27T09:39:30.221Z,5.90
2022-12-27T09:45:00.415Z,6.00
2022-12-27T09:47:34.267Z,5.90
2022-12-27T09:50:06.168Z,5.90
2022-12-27T09:52:40.637Z,5.90
2022-12-27T09:55:17.892Z,6.00
2022-12-27T09:57:48.826Z,6.00
2022-12-27T10:00:34.731Z,6.00
2022-12-27T10:03:07.193Z,5.90
2022-12-27T10:05:38.468Z,5.80
2022-12-27T10:08:27.586Z,5.80
2022-12-27T10:11:03.684Z,6.00
2022-12-27T10:13:45.483Z,6.20
2022-12-27T10:16:22.837Z,6.20
2022-12-27T10:19:20.399Z,6.20
2022-12-27T10:21:59.885Z,6.20
2022-12-27T10:24:36.401Z,6.20
2022-12-27T10:27:14.548Z,6.20
2022-12-27T10:29:43.958Z,6.20
2022-12-27T10:32:15.575Z,6.30
2022-12-27T10:34:44.506Z,6.30
2022-12-27T10:37:16.539Z,6.30
2022-12-27T10:39:47.942Z,6.30
2022-12-27T10:42:33.292Z,6.30
2022-12-27T10:45:32.486Z,6.30
2022-12-27T10:48:18.018Z,6.20
2022-12-27T10:50:54.345Z,6.20
2022-12-27T10:53:31.501Z,6.20
2022-12-27T10:56:26.721Z,6.20
2022-12-27T10:58:59.104Z,6.40
2022-12-27T11:01:30.001Z,6.40
2022-12-27T11:04:17.879Z,6.50
2022-12-27T11:06:51.715Z,6.50
2022-12-27T11:09:32.255Z,6.50
2022-12-27T11:12:19.001Z,6.60
2022-12-27T11:15:06.626Z,6.70
2022-12-27T11:17:39.709Z,6.80
2022-12-27T11:20:22.178Z,7.10
2022-12-27T11:22:53.830Z,7.20
2022-12-27T11:25:23.296Z,7.20
2022-12-27T11:27:59.461Z,7.20
2022-12-27T11:30:32.053Z,7.20
2022-12-27T11:33:04.675Z,7.20
2022-12-27T11:35:38.313Z,7.20
2022-12-27T11:38:07.007Z,7.20
2022-12-27T11:40:35.998Z,7.10
2022-12-27T11:43:10.642Z,7.20
2022-12-27T11:45:42.886Z,7.30
2022-12-27T11:48:25.490Z,7.40
2022-12-27T11:51:13.567Z,7.20
2022-12-27T11:54:07.685Z,7.30
2022-12-27T11:56:38.220Z,7.10
2022-12-27T11:59:32.877Z,7.00
2022-12-27T12:02:25.121Z,7.10
2022-12-27T12:05:18.129Z,7.10
2022-12-27T12:08:05.994Z,7.10
2022-12-27T12:10:44.177Z,7.10
2022-12-27T12:13:45.401Z,7.00
2022-12-27T12:16:32.879Z,6.90
2022-12-27T12:19:14.236Z,6.90
2022-12-27T12:21:59.578Z,6.90
2022-12-27T12:24:44.004Z,6.80
2022-12-27T12:27:36.553Z,6.70
2022-12-27T12:30:44.877Z,6.50
2022-12-27T12:33:43.385Z,6.40
2022-12-27T12:36:40.578Z,6.20
2022-12-27T12:39:19.293Z,6.10
2022-12-27T12:42:01.762Z,6.10
2022-12-27T12:45:11.081Z,6.10
2022-12-27T12:47:58.760Z,6.10
2022-12-27T12:50:40.642Z,6.00
2022-12-27T12:53:23.797Z,5.90
2022-12-27T12:55:59.759Z,5.80
2022-12-27T12:58:45.229Z,5.80
2022-12-27T13:01:31.302Z,5.80
2022-12-27T13:04:23.701Z,5.80
2022-12-27T13:07:39.297Z,5.80
2022-12-27T13:10:38.649Z,5.80
2022-12-27T13:13:16.123Z,5.80
2022-12-27T13:15:58.200Z,5.80
2022-12-27T13:18:36.892Z,5.80
2022-12-27T13:21:13.796Z,5.70
2022-12-27T13:23:56.460Z,5.70
2022-12-27T13:26:33.562Z,5.80
2022-12-27T13:29:21.820Z,5.70
2022-12-27T13:31:59.657Z,5.70
2022-12-27T13:34:42.095Z,5.70
2022-12-27T13:37:22.977Z,5.70
2022-12-27T13:40:12.014Z,5.70
2022-12-27T13:43:05.887Z,5.60
2022-12-27T13:45:52.902Z,5.70
2022-12-27T13:48:46.106Z,5.70
2022-12-27T13:51:35.462Z,5.80
2022-12-27T13:54:45.274Z,5.80
2022-12-27T13:57:30.750Z,5.70
2022-12-27T14:00:18.710Z,5.70
2022-12-27T14:03:27.925Z,5.60
2022-12-27T14:06:14.573Z,5.50
2022-12-27T14:09:03.234Z,5.50
2022-12-27T14:11:42.244Z,5.40
2022-12-27T14:14:13.787Z,5.40
2022-12-27T14:17:01.632Z,5.30
2022-12-27T14:19:58.005Z,5.30
2022-12-27T14:23:06.954Z,5.30
2022-12-27T14:26:11.169Z,5.20
2022-12-27T14:29:13.821Z,5.20
2022-12-27T14:32:13.040Z,5.10
2022-12-27T14:35:24.669Z,5.10
2022-12-27T14:38:29.101Z,5.00
2022-12-27T14:41:29.346Z,4.90
2022-12-27T14:44:34.188Z,4.90
2022-12-27T14:47:52.406Z,4.80
2022-12-27T14:51:00.543Z,4.90
2022-12-27T14:54:11.781Z,4.90
2022-12-27T14:56:53.160Z,4.90
2022-12-27T14:59:31.894Z,5.00
2022-12-27T15:02:16.113Z,5.00
2022-12-27T15:05:01.621Z,5.00
2022-12-27T15:08:03.429Z,5.00
2022-12-27T15:10:53.094Z,4.90
2022-12-27T15:13:33.849Z,4.90
2022-12-27T15:16:13.289Z,4.90
2022-12-27T15:19:00.291Z,4.80
2022-12-27T15:21:45.622Z,4.80
2022-12-27T15:24:28.538Z,4.80
2022-12-27T15:27:06.941Z,4.80
2022-12-27T15:29:47.279Z,4.80
2022-12-27T15:32:29.267Z,4.80
2022-12-27T15:35:31.292Z,4.80
2022-12-27T15:38:09.543Z,4.80
2022-12-27T15:41:05.733Z,4.80
2022-12-27T15:44:10.887Z,4.80
2022-12-27T15:47:16.926Z,4.70
2022-12-27T15:50:01.293Z,4.70
2022-12-27T15:52:45.237Z,4.70
2022-12-27T15:55:25.955Z,4.70
2022-12-27T15:58:13.274Z,4.70
2022-12-27T16:00:45.639Z,4.80
2022-12-27T16:03:34.770Z,4.70
2022-12-27T16:06:04.465Z,4.70
2022-12-27T16:08:36.057Z,4.80
2022-12-27T16:11:07.300Z,4.80
2022-12-27T16:14:18.446Z,4.80
2022-12-27T16:16:55.145Z,4.80
2022-12-27T16:19:48.609Z,4.80
2022-12-27T16:22:26.247Z,4.80
2022-12-27T16:24:55.200Z,4.80
2022-12-27T16:27:31.225Z,4.80
2022-12-27T16:30:00.859Z,4.80
2022-12-27T16:32:31.083Z,4.80
2022-12-27T16:35:15.016Z,4.80
2022-12-27T16:37:46.298Z,4.80
2022-12-27T16:40:39.057Z,4.80
2022-12-27T16:43:33.678Z,4.80
2022-12-27T16:46:22.630Z,4.70
2022-12-27T16:49:13.655Z,4.70
2022-12-27T16:51:55.751Z,4.70
2022-12-27T16:54:32.631Z,4.70
2022-12-27T16:57:43.163Z,4.80
2022-12-27T17:00:37.692Z,4.80
2022-12-27T17:03:44.247Z,4.80
2022-12-27T17:06:54.377Z,4.80
2022-12-27T17:09:46.303Z,4.70
2022-12-27T17:12:23.862Z,4.60
2022-12-27T17:15:01.044Z,4.60
2022-12-27T17:17:33.057Z,4.50
2022-12-27T17:20:05.688Z,4.50
2022-12-27T17:22:41.369Z,4.50
2022-12-27T17:25:16.833Z,4.40
2022-12-27T17:28:01.528Z,4.40
2022-12-27T17:30:41.005Z,4.40
2022-12-27T17:33:24.815Z,4.40
2022-12-27T17:36:10.198Z,4.40
2022-12-27T17:38:52.586Z,4.40
2022-12-27T17:41:51.007Z,4.40
2022-12-27T17:44:40.063Z,4.50
2022-12-27T17:47:28.841Z,4.50
2022-12-27T17:50:00.687Z,4.50
2022-12-27T17:52:46.934Z,4.50
2022-12-27T17:55:39.538Z,4.60
2022-12-27T17:58:11.322Z,4.50
2022-12-27T18:00:46.522Z,4.40
2022-12-27T18:03:15.974Z,4.30
2022-12-27T18:05:47.529Z,4.30
2022-12-27T18:08:25.887Z,4.20
2022-12-27T18:10:56.544Z,4.10
2022-12-27T18:13:27.794Z,4.00
2022-12-27T18:15:57.375Z,4.00
2022-12-27T18:18:29.506Z,4.00
2022-12-27T18:20:59.815Z,3.90
2022-12-27T18:23:29.341Z,3.80
2022-12-27T18:26:12.774Z,3.80
2022-12-27T18:28:42.971Z,3.80
2022-12-27T18:31:19.174Z,3.70
2022-12-27T18:33:51.885Z,3.70
2022-12-27T18:36:27.984Z,3.70
2022-12-27T18:39:00.235Z,3.70
2022-12-27T18:41:37.461Z,3.70
2022-12-27T18:44:14.579Z,3.60
2022-12-27T18:46:43.325Z,3.60
2022-12-27T18:49:25.502Z,3.60
2022-12-27T18:51:55.801Z,3.50
2022-12-27T18:54:33.906Z,3.50
2022-12-27T18:57:06.528Z,3.50
2022-12-27T18:59:36.213Z,3.50
2022-12-27T19:02:32.966Z,3.40
2022-12-27T19:05:16.323Z,3.40
2022-12-27T19:07:45.055Z,3.40
2022-12-27T19:10:18.636Z,3.40
2022-12-27T19:12:49.716Z,3.40
2022-12-27T19:15:22.017Z,3.40
2022-12-27T19:17:53.384Z,3.40
2022-12-27T19:20:25.661Z,3.40
2022-12-27T19:22:57.373Z,3.40
2022-12-27T19:25:28.957Z,3.40
2022-12-27T19:28:01.333Z,3.30
2022-12-27T19:30:35.870Z,3.30
2022-12-27T19:33:08.977Z,3.30
2022-12-27T19:35:37.935Z,3.20
2022-12-27T19:38:06.624Z,3.20
2022-12-27T19:40:35.318Z,3.10
2022-12-27T19:43:05.380Z,3.10
2022-12-27T19:45:34.075Z,3.10
2022-12-27T19:48:02.752Z,3.10
2022-12-27T19:50:31.417Z,3.10
2022-12-27T19:53:00.530Z,3.10
2022-12-27T19:55:29.385Z,3.10
2022-12-27T19:57:58.027Z,3.10
2022-12-27T20:00:28.154Z,3.10
2022-12-27T20:02:57.157Z,3.10
2022-12-27T20:06:11.185Z,3.10
2022-12-27T20:08:24.694Z,3.20
2022-12-27T20:10:53.697Z,3.30
2022-12-27T20:13:22.429Z,3.40
2022-12-27T20:15:53.534Z,3.40
2022-12-27T20:18:23.261Z,3.50
2022-12-27T20:20:53.082Z,3.50
2022-12-27T20:23:22.048Z,3.60
2022-12-27T20:25:51.423Z,3.70
2022-12-27T20:28:20.536Z,3.70
2022-12-27T20:30:49.234Z,3.80
2022-12-27T20:33:19.425Z,3.80
2022-12-27T20:35:57.028Z,3.80
2022-12-27T20:38:26.314Z,3.90
2022-12-27T20:40:55.079Z,3.90
2022-12-27T20:43:23.775Z,4.00
2022-12-27T20:45:52.470Z,4.00
2022-12-27T20:48:22.550Z,4.10
2022-12-27T20:50:51.255Z,4.10
2022-12-27T20:53:19.906Z,4.10
2022-12-27T20:55:59.176Z,4.20
2022-12-27T20:58:27.818Z,4.20
2022-12-27T21:00:56.531Z,4.20
2022-12-27T21:03:26.639Z,4.20
2022-12-27T21:05:55.324Z,4.20
2022-12-27T21:08:24.230Z,4.20
2022-12-27T21:10:52.823Z,4.20
2022-12-27T21:13:21.441Z,4.20
2022-12-27T21:15:50.094Z,4.20
2022-12-27T21:18:18.710Z,4.20
2022-12-27T21:20:48.749Z,4.20
2022-12-27T21:23:17.350Z,4.20
2022-12-27T21:25:45.986Z,4.20
2022-12-27T21:28:14.580Z,4.20
2022-12-27T21:30:43.253Z,4.20
2022-12-27T21:33:11.890Z,4.30
2022-12-27T21:35:40.582Z,4.30
2022-12-27T21:38:10.585Z,4.30
2022-12-27T21:40:39.189Z,4.30
2022-12-27T21:43:07.777Z,4.30
2022-12-27T21:45:37.042Z,4.30
2022-12-27T21:48:05.820Z,4.30
2022-12-27T21:50:37.388Z,4.40
2022-12-27T21:53:06.211Z,4.40
2022-12-27T21:55:36.231Z,4.40
2022-12-27T21:58:04.865Z,4.40
2022-12-27T22:00:33.436Z,4.40
2022-12-27T22:03:02.352Z,4.40
2022-12-27T22:05:31.127Z,4.40
2022-12-27T22:07:59.757Z,4.40
2022-12-27T22:10:28.449Z,4.40
2022-12-27T22:12:58.492Z,4.40
2022-12-27T22:15:27.174Z,4.40
2022-12-27T22:17:56.075Z,4.40
2022-12-27T22:20:24.653Z,4.40
2022-12-27T22:22:53.238Z,4.40
2022-12-27T22:25:21.820Z,4.40
2022-12-27T22:27:50.424Z,4.40
2022-12-27T22:30:20.420Z,4.40
2022-12-27T22:32:49.020Z,4.50
2022-12-27T22:35:17.830Z,4.40
2022-12-27T22:37:46.512Z,4.40
2022-12-27T22:40:30.966Z,4.40
2022-12-27T22:43:03.885Z,4.40
2022-12-27T22:45:33.880Z,4.40
2022-12-27T22:48:02.489Z,4.40
2022-12-27T22:50:31.114Z,4.40
2022-12-27T22:52:59.769Z,4.40
2022-12-27T22:55:28.537Z,4.40
2022-12-27T22:57:57.162Z,4.40
2022-12-27T23:00:25.822Z,4.40
2022-12-27T23:02:55.876Z,4.40
2022-12-27T23:05:24.495Z,4.40
2022-12-27T23:08:04.314Z,4.40
2022-12-27T23:10:35.626Z,4.40
2022-12-27T23:13:04.243Z,4.50
2022-12-27T23:15:32.912Z,4.40
2022-12-27T23:18:02.932Z,4.40
2022-12-27T23:20:34.297Z,4.40
2022-12-27T23:23:02.963Z,4.40
2022-12-27T23:25:31.614Z,4.30
2022-12-27T23:28:00.214Z,4.30
2022-12-27T23:30:28.829Z,4.20
2022-12-27T23:32:57.423Z,4.20
2022-12-27T23:35:27.402Z,4.10
2022-12-27T23:37:55.997Z,4.00
2022-12-27T23:40:24.698Z,3.90
2022-12-27T23:42:53.375Z,3.80
2022-12-27T23:45:22.005Z,3.70
2022-12-27T23:47:50.607Z,3.60
2022-12-27T23:50:21.129Z,3.50
2022-12-27T23:52:51.212Z,3.50
2022-12-27T23:55:19.893Z,3.40
2022-12-27T23:57:48.476Z,3.30
